Time;durP1;ratioP1;P1;durP2;ratioP2;P2;SDS_P1;SDS_P2;PMS_P1;PMS_P2;Temp;Humidity;BMP_temperature;BMP_pressure;BME280_temperature;BME280_humidity;BME280_pressure;Samples;Min_cycle;Max_cycle;Signal;HPM_P1;HPM_P2
2023/12/12 00:01:45;;;;;;;1.50;1.40;;;;;;;10.35;63.03;94600.34;6193050;23;20066;-85
2023/12/12 00:04:10;;;;;;;1.50;1.40;;;;;;;10.46;63.14;94612.78;6168236;23;20008;-84
2023/12/12 00:06:36;;;;;;;1.40;1.20;;;;;;;10.54;62.35;94591.03;6167855;23;20020;-85
2023/12/12 00:09:02;;;;;;;1.42;1.10;;;;;;;10.60;62.35;94605.06;6193035;23;20012;-85
2023/12/12 00:11:30;;;;;;;0.70;0.70;;;;;;;10.48;61.45;94597.81;6217104;23;20087;-84
2023/12/12 00:13:56;;;;;;;0.85;0.75;;;;;;;10.49;62.45;94602.03;6192474;23;20007;-85
2023/12/12 00:16:21;;;;;;;0.88;0.68;;;;;;;10.46;62.84;94594.59;6168207;23;20087;-85
2023/12/12 00:18:49;;;;;;;0.88;0.70;;;;;;;10.11;63.50;94585.94;6217860;23;20011;-85
2023/12/12 00:21:15;;;;;;;1.52;0.70;;;;;;;10.25;63.91;94597.25;6169125;23;20064;-85
2023/12/12 00:23:40;;;;;;;0.82;0.80;;;;;;;10.36;63.62;94584.56;6167934;23;20087;-84
2023/12/12 00:26:07;;;;;;;0.80;0.80;;;;;;;10.46;63.35;94578.22;6192725;23;20000;-85
2023/12/12 00:28:36;;;;;;;2.05;0.80;;;;;;;10.50;63.27;94579.41;6193145;23;20012;-85
2023/12/12 00:31:02;;;;;;;1.02;0.80;;;;;;;10.43;63.44;94574.19;6167833;23;20004;-85
2023/12/12 00:33:31;;;;;;;0.70;0.70;;;;;;;10.51;63.13;94581.84;6192878;23;20065;-85
2023/12/12 00:35:59;;;;;;;1.20;0.90;;;;;;;10.82;62.54;94603.97;6193163;23;20008;-85
2023/12/12 00:38:28;;;;;;;1.75;1.23;;;;;;;10.56;62.92;94591.66;6217802;23;20015;-84
2023/12/12 00:43:21;;;;;;;1.80;1.60;;;;;;;9.52;65.08;94598.31;6248443;22;20078;-85
2023/12/12 00:45:47;;;;;;;2.10;1.90;;;;;;;9.81;64.22;94611.34;6217688;23;20012;-85
2023/12/12 00:48:13;;;;;;;1.90;1.80;;;;;;;9.45;65.59;94615.59;6192503;23;20022;-85
2023/12/12 00:50:39;;;;;;;3.38;2.40;;;;;;;9.46;65.94;94616.41;6217722;23;20064;-85
2023/12/12 00:53:04;;;;;;;3.92;2.83;;;;;;;9.63;64.94;94614.34;6216934;23;20038;-85
2023/12/12 00:55:30;;;;;;;3.78;3.00;;;;;;;9.43;65.75;94593.41;6192729;23;20069;-85
2023/12/12 00:57:55;;;;;;;3.83;3.22;;;;;;;9.68;65.32;94612.81;6191893;23;20011;-84
2023/12/12 01:00:24;;;;;;;3.95;3.17;;;;;;;9.87;64.49;94610.56;6168920;23;20012;-85
2023/12/12 01:02:49;;;;;;;5.18;3.80;;;;;;;10.07;63.98;94621.09;6192541;23;20090;-85
2023/12/12 01:05:15;;;;;;;5.22;3.78;;;;;;;10.05;63.79;94602.31;6217164;23;20083;-85
2023/12/12 01:07:41;;;;;;;4.70;3.50;;;;;;;10.19;63.41;94601.41;6192536;23;20114;-85
2023/12/12 01:10:09;;;;;;;4.82;3.40;;;;;;;9.91;64.65;94601.41;6191787;23;20012;-85
2023/12/12 01:12:34;;;;;;;5.10;3.50;;;;;;;9.85;64.37;94596.97;6215896;23;20007;-85
2023/12/12 01:15:01;;;;;;;3.03;2.67;;;;;;;10.07;63.82;94601.16;6165686;23;20008;-85
2023/12/12 01:17:30;;;;;;;3.72;2.90;;;;;;;10.04;64.06;94582.53;6215910;23;20119;-84
2023/12/12 01:19:55;;;;;;;3.72;2.72;;;;;;;10.20;63.61;94584.03;6216548;23;20007;-85
2023/12/12 01:22:20;;;;;;;3.25;2.15;;;;;;;10.20;63.67;94604.81;6192820;23;20011;-85
2023/12/12 01:24:46;;;;;;;2.45;1.92;;;;;;;10.23;64.02;94604.44;6167670;23;20027;-84
2023/12/12 01:27:12;;;;;;;2.55;2.08;;;;;;;10.25;63.89;94597.25;6217366;23;20004;-85
2023/12/12 01:29:38;;;;;;;1.00;0.85;;;;;;;9.88;64.79;94606.97;6217501;23;20011;-85
2023/12/12 01:32:06;;;;;;;1.33;1.02;;;;;;;9.97;64.62;94592.84;6192558;23;20012;-85
2023/12/12 01:34:32;;;;;;;1.08;0.98;;;;;;;10.26;63.66;94580.66;6216624;23;20014;-85
2023/12/12 01:36:57;;;;;;;1.75;1.20;;;;;;;10.52;63.09;94591.22;6167618;23;20011;-85
2023/12/12 01:39:23;;;;;;;3.30;1.20;;;;;;;10.59;63.25;94593.06;6192575;23;20016;-85
2023/12/12 01:41:49;;;;;;;1.75;1.50;;;;;;;10.41;63.73;94589.16;6217601;23;20004;-85
2023/12/12 01:44:15;;;;;;;2.40;1.52;;;;;;;10.53;63.88;94603.25;6216689;23;20016;-85
2023/12/12 01:46:43;;;;;;;3.05;2.13;;;;;;;10.65;63.34;94592.31;6192566;23;20012;-85
2023/12/12 01:49:09;;;;;;;2.20;1.40;;;;;;;10.48;62.97;94578.81;6191883;23;20066;-85
2023/12/12 01:51:35;;;;;;;1.77;1.20;;;;;;;10.39;63.30;94572.97;6191922;23;20008;-85
2023/12/12 01:54:04;;;;;;;1.23;1.10;;;;;;;10.10;63.94;94556.56;6192762;23;20059;-86
2023/12/12 01:56:31;;;;;;;1.67;1.20;;;;;;;10.16;64.00;94558.41;6216552;23;20008;-85
2023/12/12 01:58:58;;;;;;;1.85;1.15;;;;;;;10.56;62.89;94556.03;6191852;23;20111;-85
2023/12/12 02:01:25;;;;;;;2.58;1.60;;;;;;;10.55;62.84;94536.25;6192293;23;20005;-83
2023/12/12 02:03:52;;;;;;;2.10;1.70;;;;;;;10.09;64.37;94521.22;6247350;22;20015;-85
2023/12/12 02:06:22;;;;;;;3.53;1.60;;;;;;;10.36;63.90;94539.56;6222866;22;20004;-85
2023/12/12 02:08:57;;;;;;;2.42;1.63;;;;;;;10.12;64.65;94548.59;6223682;22;20018;-84
2023/12/12 02:11:22;;;;;;;2.75;1.90;;;;;;;10.22;64.19;94556.03;6247631;22;20000;-85
2023/12/12 02:13:48;;;;;;;3.88;2.63;;;;;;;10.31;63.79;94554.94;6246659;22;20004;-85
2023/12/12 02:16:14;;;;;;;2.60;2.15;;;;;;;10.38;63.67;94571.38;6222171;22;20050;-85
2023/12/12 02:18:40;;;;;;;3.83;2.50;;;;;;;10.05;64.30;94560.72;6247392;22;20046;-85
2023/12/12 02:21:06;;;;;;;3.15;2.22;;;;;;;10.05;64.83;94542.53;6246947;22;19999;-85
2023/12/12 02:23:32;;;;;;;2.90;2.40;;;;;;;10.03;64.42;94540.13;6247594;22;20074;-85
2023/12/12 02:25:59;;;;;;;3.80;2.75;;;;;;;9.86;65.08;94554.41;6246968;22;20003;-85
2023/12/12 02:28:24;;;;;;;3.45;2.30;;;;;;;9.82;65.57;94561.78;6248212;22;20091;-85
2023/12/12 02:30:50;;;;;;;3.72;2.55;;;;;;;9.89;65.15;94543.66;6249347;22;20027;-85
2023/12/12 02:33:16;;;;;;;3.47;2.70;;;;;;;10.15;64.40;94530.81;6224883;22;20038;-84
2023/12/12 02:35:41;;;;;;;4.60;2.42;;;;;;;10.27;63.99;94538.09;6249250;22;20053;-85
2023/12/12 02:38:07;;;;;;;3.97;2.20;;;;;;;9.82;65.51;94516.81;6198935;22;20015;-85
2023/12/12 02:40:33;;;;;;;2.30;1.83;;;;;;;10.07;65.16;94523.19;6224518;22;20007;-84
2023/12/12 02:42:58;;;;;;;2.13;1.80;;;;;;;10.20;64.64;94522.44;6224861;22;20007;-85
2023/12/12 02:45:24;;;;;;;3.08;2.25;;;;;;;10.20;64.49;94512.03;6224365;22;20035;-85
2023/12/12 02:47:50;;;;;;;3.28;2.25;;;;;;;10.10;65.17;94522.00;6224211;22;20008;-85
2023/12/12 02:50:15;;;;;;;5.00;3.05;;;;;;;10.28;64.23;94522.31;6223948;22;20004;-85
2023/12/12 02:52:43;;;;;;;6.05;3.53;;;;;;;10.41;63.83;94524.16;6223441;22;20091;-85
2023/12/12 02:55:09;;;;;;;5.07;3.70;;;;;;;10.20;64.65;94498.25;6248956;22;20057;-85
2023/12/12 02:57:34;;;;;;;4.45;3.40;;;;;;;10.36;63.77;94479.78;6248006;22;20024;-85
2023/12/12 03:00:00;;;;;;;3.50;2.70;;;;;;;10.30;63.92;94470.97;6249162;22;20003;-85
2023/12/12 03:02:25;;;;;;;3.33;2.47;;;;;;;10.25;64.28;94472.50;6224499;22;20011;-85
2023/12/12 03:04:51;;;;;;;4.03;2.20;;;;;;;10.34;64.65;94486.97;6222535;22;20041;-85
2023/12/12 03:07:18;;;;;;;5.32;2.72;;;;;;;10.25;64.64;94501.88;6248587;22;20007;-85
2023/12/12 03:09:46;;;;;;;4.50;3.10;;;;;;;10.29;64.37;94517.91;6224218;22;20008;-85
2023/12/12 03:12:11;;;;;;;2.30;1.60;;;;;;;10.17;64.42;94528.03;6198370;22;20022;-84
2023/12/12 03:14:37;;;;;;;1.92;1.52;;;;;;;10.28;64.00;94530.09;6248918;22;20082;-85
2023/12/12 03:17:03;;;;;;;2.50;1.38;;;;;;;10.44;63.23;94504.81;6224048;22;20065;-85
2023/12/12 03:19:31;;;;;;;1.50;1.25;;;;;;;10.28;63.41;94498.91;6224100;22;20065;-85
2023/12/12 03:26:56;;;;;;;3.05;2.10;;;;;;;9.54;65.91;94496.88;6244547;23;20027;-85
2023/12/12 03:29:22;;;;;;;2.70;1.98;;;;;;;9.64;65.59;94481.75;6170011;23;20007;-85
2023/12/12 03:31:47;;;;;;;3.65;2.30;;;;;;;9.62;65.89;94473.34;6193959;23;20066;-84
2023/12/12 03:34:15;;;;;;;2.90;2.22;;;;;;;10.05;64.50;94472.41;6168845;23;20012;-85
2023/12/12 03:36:42;;;;;;;3.70;2.42;;;;;;;10.12;64.02;94463.63;6218486;23;20008;-85
2023/12/12 03:39:08;;;;;;;3.50;2.53;;;;;;;9.95;64.90;94467.56;6218664;23;20015;-85
2023/12/12 03:41:34;;;;;;;3.40;2.10;;;;;;;9.86;65.02;94459.13;6218951;23;20008;-85
2023/12/12 03:43:59;;;;;;;3.10;2.20;;;;;;;9.92;65.26;94452.38;6218634;23;20061;-84
2023/12/12 03:46:25;;;;;;;2.58;1.88;;;;;;;10.09;64.74;94450.22;6193414;23;20059;-85
2023/12/12 03:48:50;;;;;;;2.30;1.60;;;;;;;10.11;64.37;94446.47;6193551;23;20023;-85
2023/12/12 03:51:15;;;;;;;2.42;1.50;;;;;;;10.22;64.46;94447.69;6218337;23;20091;-85
2023/12/12 03:53:41;;;;;;;1.48;1.33;;;;;;;10.23;64.37;94441.50;6193212;23;20058;-85
2023/12/12 03:56:07;;;;;;;2.95;1.52;;;;;;;10.43;63.77;94456.38;6192470;23;20008;-85
2023/12/12 03:58:32;;;;;;;1.20;1.02;;;;;;;10.50;63.61;94439.81;6218401;23;20011;-85
2023/12/12 04:01:01;;;;;;;1.60;1.10;;;;;;;10.55;63.73;94452.25;6218052;23;20004;-85
2023/12/12 04:03:27;;;;;;;2.28;1.60;;;;;;;10.43;64.38;94449.38;6218156;23;20065;-85
2023/12/12 04:05:53;;;;;;;4.85;2.38;;;;;;;10.17;64.92;94440.47;6217920;23;20019;-85
2023/12/12 04:08:18;;;;;;;4.45;2.70;;;;;;;10.31;64.29;94427.56;6218246;23;20058;-85
2023/12/12 04:10:44;;;;;;;4.38;2.90;;;;;;;9.74;65.90;94447.66;6192934;23;20019;-85
2023/12/12 04:13:09;;;;;;;5.30;3.00;;;;;;;10.13;64.69;94448.88;6193196;23;20004;-85
2023/12/12 04:15:35;;;;;;;3.55;2.53;;;;;;;10.05;64.66;94438.63;6218377;23;20008;-84
2023/12/12 04:18:00;;;;;;;3.55;2.75;;;;;;;9.86;65.51;94427.13;6192947;23;20054;-84
2023/12/12 04:20:26;;;;;;;4.55;3.25;;;;;;;9.97;65.37;94431.78;6192901;23;20012;-85
2023/12/12 04:22:51;;;;;;;4.63;3.08;;;;;;;10.07;64.79;94424.47;6192895;23;20008;-84
2023/12/12 04:25:19;;;;;;;4.45;2.90;;;;;;;10.14;65.08;94429.66;6168094;23;20091;-85
2023/12/12 04:27:44;;;;;;;3.42;2.50;;;;;;;10.28;64.54;94433.94;6217589;23;20026;-84
2023/12/12 04:30:10;;;;;;;4.72;2.92;;;;;;;10.34;64.18;94445.38;6217841;23;20004;-84
2023/12/12 04:32:35;;;;;;;4.97;2.75;;;;;;;10.25;64.45;94449.13;6218139;23;20039;-84
2023/12/12 04:35:05;;;;;;;2.35;1.80;;;;;;;10.38;64.59;94457.00;6217966;23;20004;-85
2023/12/12 04:37:31;;;;;;;1.88;1.55;;;;;;;10.46;64.23;94449.00;6218068;23;20000;-84
2023/12/12 04:39:58;;;;;;;2.67;1.40;;;;;;;10.42;64.39;94444.41;6192825;23;20018;-84
2023/12/12 04:44:50;;;;;;;1.58;1.30;;;;;;;10.43;64.49;94438.19;6247399;22;20020;-85
2023/12/12 04:47:16;;;;;;;2.08;1.50;;;;;;;10.36;64.62;94425.97;6223013;22;20093;-85
2023/12/12 04:49:41;;;;;;;1.63;1.15;;;;;;;10.58;64.04;94433.63;6222402;22;20011;-85
2023/12/12 04:52:09;;;;;;;1.35;1.13;;;;;;;10.75;63.27;94421.06;6221790;22;20015;-83
2023/12/12 04:54:34;;;;;;;2.88;0.75;;;;;;;10.44;64.47;94411.22;6221535;22;20003;-85
2023/12/12 04:57:00;;;;;;;1.63;0.95;;;;;;;10.54;64.49;94420.22;6222201;22;20012;-85
2023/12/12 04:59:26;;;;;;;1.88;0.88;;;;;;;10.46;64.71;94410.00;6222394;22;20019;-85
2023/12/12 05:01:52;;;;;;;0.90;0.80;;;;;;;10.51;64.85;94401.63;6223293;22;20003;-84
2023/12/12 05:04:17;;;;;;;0.60;0.60;;;;;;;10.61;64.14;94403.84;6222279;22;20010;-84
2023/12/12 05:06:46;;;;;;;0.20;0.20;;;;;;;10.59;64.25;94417.03;6222827;22;20086;-85
2023/12/12 05:09:11;;;;;;;0.30;0.30;;;;;;;10.54;64.61;94404.63;6247607;22;20010;-84
2023/12/12 05:11:37;;;;;;;0.30;0.20;;;;;;;10.65;64.53;94394.66;6222757;22;20008;-85
2023/12/12 05:14:05;;;;;;;1.10;0.25;;;;;;;10.40;65.24;94387.41;6197276;22;20032;-85
2023/12/12 05:16:31;;;;;;;0.68;0.30;;;;;;;10.60;64.76;94391.84;6247944;22;20114;-84
2023/12/12 05:18:59;;;;;;;0.50;0.30;;;;;;;10.75;63.99;94395.84;6223173;22;20042;-84
2023/12/12 05:21:26;;;;;;;0.30;0.30;;;;;;;10.91;63.63;94401.69;6247660;22;20003;-85
2023/12/12 05:23:51;;;;;;;0.45;0.40;;;;;;;10.97;63.50;94406.09;6222784;22;20046;-84
2023/12/12 05:26:19;;;;;;;0.60;0.60;;;;;;;10.80;64.20;94397.88;6222779;22;20008;-85
2023/12/12 05:28:45;;;;;;;1.13;0.80;;;;;;;10.71;64.49;94388.66;6223315;22;20015;-85
2023/12/12 05:31:13;;;;;;;1.73;0.88;;;;;;;10.77;64.23;94387.84;6248025;22;20007;-85
2023/12/12 05:33:39;;;;;;;2.78;1.60;;;;;;;10.54;65.05;94398.63;6223011;22;20034;-85
2023/12/12 05:36:05;;;;;;;2.45;1.48;;;;;;;10.60;64.83;94404.84;6222389;22;20012;-85
2023/12/12 05:38:30;;;;;;;1.95;1.35;;;;;;;10.34;65.65;94391.59;6247693;22;20007;-85
2023/12/12 05:40:59;;;;;;;2.42;1.40;;;;;;;10.46;65.28;94384.00;6222714;22;20008;-85
2023/12/12 05:43:25;;;;;;;1.83;1.40;;;;;;;10.39;65.82;94396.19;6247299;22;20024;-84
2023/12/12 05:45:50;;;;;;;2.65;1.30;;;;;;;10.70;64.94;94405.25;6222670;22;20004;-84
2023/12/12 05:48:16;;;;;;;3.10;1.65;;;;;;;10.65;64.57;94394.66;6222530;22;20016;-85
2023/12/12 05:50:41;;;;;;;2.85;1.98;;;;;;;10.65;65.22;94423.25;6222395;22;20000;-85
2023/12/12 05:53:07;;;;;;;2.30;1.52;;;;;;;10.69;64.61;94406.25;6247255;22;20008;-84
2023/12/12 05:55:33;;;;;;;2.03;1.67;;;;;;;10.63;64.62;94391.44;6247742;22;20010;-85
2023/12/12 05:57:59;;;;;;;3.55;1.60;;;;;;;10.60;64.99;94373.63;6222284;22;20014;-84
2023/12/12 06:00:27;;;;;;;1.70;1.50;;;;;;;10.86;64.42;94383.28;6222879;22;20015;-85
2023/12/12 06:02:57;;;;;;;2.78;1.67;;;;;;;10.75;64.65;94374.25;6222549;22;20015;-85
2023/12/12 06:05:23;;;;;;;1.63;1.35;;;;;;;11.03;63.79;94381.06;6223244;22;20015;-85
2023/12/12 06:07:48;;;;;;;2.85;1.33;;;;;;;10.93;64.39;94392.69;6222378;22;20004;-85
2023/12/12 06:10:18;;;;;;;2.63;1.55;;;;;;;10.92;63.95;94387.66;6222361;22;20014;-85
2023/12/12 06:12:44;;;;;;;19.55;3.33;;;;;;;10.77;64.57;94393.06;6223115;22;20004;-85
2023/12/12 06:17:35;;;;;;;248.68;9.68;;;;;;;10.80;64.06;94376.28;6249268;22;20020;-85
2023/12/12 06:20:01;;;;;;;326.17;13.70;;;;;;;10.47;65.56;94392.59;6191845;23;20003;-84
2023/12/12 06:22:26;;;;;;;24.58;5.32;;;;;;;10.43;65.15;94384.41;6191582;23;20035;-85
2023/12/12 06:24:52;;;;;;;7.38;3.72;;;;;;;10.64;64.63;94388.66;6192010;23;20004;-85
2023/12/12 06:27:17;;;;;;;5.05;3.47;;;;;;;10.69;64.49;94404.44;6191827;23;20095;-85
2023/12/12 06:29:49;;;;;;;3.25;2.72;;;;;;;10.71;64.10;94397.25;6216840;23;20011;-85
2023/12/12 06:32:15;;;;;;;54.80;7.38;;;;;;;10.77;64.15;94403.47;6167684;23;20095;-85
2023/12/12 06:34:43;;;;;;;12.85;5.45;;;;;;;10.54;64.69;94396.81;6216720;23;20000;-85
2023/12/12 06:37:09;;;;;;;6.60;4.93;;;;;;;10.70;64.33;94387.03;6216899;23;20107;-85
2023/12/12 06:39:38;;;;;;;14.90;7.53;;;;;;;10.66;64.00;94388.44;6167381;23;20008;-84
2023/12/12 06:42:05;;;;;;;16.27;6.20;;;;;;;10.42;64.84;94398.41;6192236;23;20004;-85
2023/12/12 06:44:30;;;;;;;8.70;5.50;;;;;;;10.35;65.66;94405.38;6215754;23;20004;-85
2023/12/12 06:46:56;;;;;;;7.22;5.03;;;;;;;10.37;65.14;94404.19;6216043;23;20004;-85
2023/12/12 06:49:22;;;;;;;9.70;5.93;;;;;;;10.46;64.65;94401.41;6192152;23;20016;-85
2023/12/12 06:51:47;;;;;;;9.38;5.80;;;;;;;10.49;64.63;94388.84;6190500;23;20040;-85
2023/12/12 06:54:13;;;;;;;7.70;4.70;;;;;;;10.40;65.25;94386.63;6190828;23;20011;-85
2023/12/12 06:56:38;;;;;;;6.32;4.15;;;;;;;10.88;63.27;94387.25;6190900;23;20008;-85
2023/12/12 06:59:05;;;;;;;5.70;3.85;;;;;;;10.80;63.78;94397.88;6215478;23;20083;-86
2023/12/12 07:01:31;;;;;;;26.38;5.47;;;;;;;10.60;64.39;94395.22;6190775;23;20004;-85
2023/12/12 07:03:57;;;;;;;5.68;3.97;;;;;;;10.51;64.84;94394.63;6216686;23;20015;-85
2023/12/12 07:06:23;;;;;;;38.00;6.18;;;;;;;10.47;64.96;94395.22;6192269;23;20012;-85
2023/12/12 07:08:48;;;;;;;54.08;6.57;;;;;;;10.47;65.13;94403.00;6216251;23;20004;-85
2023/12/12 07:11:15;;;;;;;95.63;8.88;;;;;;;10.48;65.03;94410.63;6167107;23;20030;-84
2023/12/12 07:13:41;;;;;;;14.38;6.38;;;;;;;10.41;65.15;94404.59;6216188;23;20008;-85
2023/12/12 07:16:10;;;;;;;10.02;6.40;;;;;;;10.44;65.23;94391.22;6193524;23;20015;-85
2023/12/12 07:18:36;;;;;;;23.50;6.82;;;;;;;10.55;64.35;94395.03;6194393;23;20007;-85
2023/12/12 07:21:02;;;;;;;14.73;7.47;;;;;;;10.51;64.46;94401.63;6168950;23;20087;-85
2023/12/12 07:23:29;;;;;;;13.00;6.15;;;;;;;10.63;63.93;94410.44;6168720;23;20012;-84
2023/12/12 07:25:55;;;;;;;8.48;5.15;;;;;;;10.41;64.55;94402.00;6169000;23;20008;-85
2023/12/12 07:28:23;;;;;;;10.10;6.13;;;;;;;10.32;64.64;94401.38;6169139;23;20027;-85
2023/12/12 07:30:48;;;;;;;9.80;5.47;;;;;;;10.33;64.75;94404.78;6218072;23;20040;-85
2023/12/12 07:33:14;;;;;;;11.05;5.63;;;;;;;10.42;64.52;94401.00;6192441;23;20012;-85
2023/12/12 07:35:39;;;;;;;9.00;5.82;;;;;;;10.33;64.88;94405.56;6193115;23;20004;-85
2023/12/12 07:38:05;;;;;;;11.23;6.25;;;;;;;10.30;64.79;94418.13;6193374;23;20014;-85
2023/12/12 07:40:30;;;;;;;9.75;6.10;;;;;;;9.95;65.44;94397.41;6168590;23;20027;-85
2023/12/12 07:42:57;;;;;;;7.93;5.15;;;;;;;9.99;65.69;94390.84;6193193;23;20023;-85
2023/12/12 07:45:22;;;;;;;10.68;5.85;;;;;;;10.09;65.47;94380.91;6169277;23;20004;-85
2023/12/12 07:47:48;;;;;;;7.05;5.00;;;;;;;10.06;65.62;94368.28;6168699;23;20008;-85
2023/12/12 07:50:16;;;;;;;7.97;5.15;;;;;;;9.97;65.90;94372.84;6193275;23;20011;-85
2023/12/12 07:52:42;;;;;;;5.70;4.10;;;;;;;9.68;66.99;94358.34;6217816;23;20008;-84
2023/12/12 07:55:08;;;;;;;6.10;4.30;;;;;;;10.08;65.84;94368.09;6193229;23;20004;-85
2023/12/12 07:57:34;;;;;;;4.82;3.42;;;;;;;10.40;64.75;94360.63;6193499;23;20015;-85
2023/12/12 08:00:07;;;;;;;4.97;3.63;;;;;;;10.50;64.46;94351.41;6194263;23;20015;-84
2023/12/12 08:02:33;;;;;;;6.28;4.38;;;;;;;10.52;64.06;94346.81;6218186;23;20004;-85
2023/12/12 08:04:59;;;;;;;5.60;4.00;;;;;;;10.63;64.14;94361.03;6192858;23;20107;-85
2023/12/12 08:07:24;;;;;;;4.93;3.85;;;;;;;10.49;64.80;94362.84;6216548;23;20008;-85
2023/12/12 08:09:50;;;;;;;7.32;4.63;;;;;;;10.48;64.97;94370.81;6167491;23;20012;-85
2023/12/12 08:12:16;;;;;;;6.45;4.32;;;;;;;10.62;64.55;94390.63;6192621;23;20008;-85
2023/12/12 08:14:42;;;;;;;72.28;7.45;;;;;;;10.78;64.47;94397.28;6192582;23;20008;-84
2023/12/12 08:17:07;;;;;;;19.88;6.47;;;;;;;10.67;64.53;94403.84;6192105;23;20028;-84
2023/12/12 08:19:32;;;;;;;617.08;25.27;;;;;;;10.64;64.48;94419.88;6192251;23;20167;-84
2023/12/12 08:21:58;;;;;;;26.70;6.40;;;;;;;10.31;65.71;94425.75;6167323;23;20012;-83
2023/12/12 08:24:24;;;;;;;226.00;12.95;;;;;;;10.39;65.39;94429.97;6192913;23;20035;-85
2023/12/12 08:26:49;;;;;;;96.20;10.15;;;;;;;10.06;65.99;94419.44;6192692;23;20083;-84
2023/12/12 08:29:15;;;;;;;8.45;6.05;;;;;;;10.11;66.17;94430.88;6167193;23;20008;-84
2023/12/12 08:31:41;;;;;;;12.18;7.22;;;;;;;10.37;65.25;94430.16;6191737;23;20090;-84
2023/12/12 08:34:07;;;;;;;9.55;5.88;;;;;;;10.51;64.46;94412.84;6190860;23;20008;-84
2023/12/12 08:36:33;;;;;;;7.47;5.30;;;;;;;10.30;65.34;94403.38;6216622;23;20058;-84
2023/12/12 08:39:02;;;;;;;8.68;5.43;;;;;;;10.44;65.06;94419.81;6167933;23;20011;-84
2023/12/12 08:41:30;;;;;;;8.73;5.28;;;;;;;10.44;65.37;94406.81;6167851;23;20004;-84
2023/12/12 08:43:59;;;;;;;7.30;5.07;;;;;;;10.52;64.95;94408.44;6217096;23;20012;-84
2023/12/12 08:46:29;;;;;;;5.90;4.22;;;;;;;10.62;64.51;94374.25;6216841;23;20008;-84
2023/12/12 08:48:55;;;;;;;6.35;4.40;;;;;;;10.50;65.38;94371.41;6217559;23;20015;-84
2023/12/12 08:51:22;;;;;;;6.63;4.63;;;;;;;10.81;64.54;94394.25;6216110;23;20065;-84
2023/12/12 08:53:48;;;;;;;5.13;3.90;;;;;;;10.75;65.07;94395.84;6217029;23;20008;-84
2023/12/12 08:56:17;;;;;;;6.18;4.30;;;;;;;10.82;64.88;94395.06;6167210;23;20012;-83
2023/12/12 08:58:44;;;;;;;6.78;4.53;;;;;;;10.90;64.49;94377.44;6217002;23;20019;-84
2023/12/12 09:01:10;;;;;;;4.65;3.78;;;;;;;10.92;64.60;94382.47;6192450;23;20031;-84
2023/12/12 09:03:35;;;;;;;6.30;4.15;;;;;;;10.96;64.60;94362.84;6192268;23;20027;-84
2023/12/12 09:06:02;;;;;;;6.35;4.13;;;;;;;11.02;64.57;94353.44;6216677;23;20012;-84
2023/12/12 09:08:27;;;;;;;6.03;3.90;;;;;;;10.94;65.05;94351.84;6192241;23;20074;-84
2023/12/12 09:10:53;;;;;;;4.65;3.30;;;;;;;11.07;64.59;94357.03;6191919;23;20016;-84
2023/12/12 09:13:19;;;;;;;6.15;4.18;;;;;;;11.33;63.90;94360.63;6192753;23;20036;-84
2023/12/12 09:15:44;;;;;;;5.50;3.90;;;;;;;11.29;63.92;94359.41;6192100;23;20095;-84
2023/12/12 09:18:10;;;;;;;6.85;4.95;;;;;;;10.98;65.21;94353.03;6191936;23;20054;-84
2023/12/12 09:20:35;;;;;;;10.93;6.03;;;;;;;11.23;64.38;94355.84;6217142;23;20034;-84
2023/12/12 09:23:01;;;;;;;11.27;8.05;;;;;;;11.09;64.70;94357.63;6167266;23;20073;-84
2023/12/12 09:25:27;;;;;;;13.73;7.55;;;;;;;11.00;65.24;94363.25;6217179;23;20355;-84
2023/12/12 09:27:52;;;;;;;35.80;7.22;;;;;;;10.91;65.43;94334.84;6166787;23;20008;-84
2023/12/12 09:30:18;;;;;;;10.93;7.20;;;;;;;10.89;64.91;94336.84;6215506;23;20011;-84
2023/12/12 09:32:43;;;;;;;10.85;7.38;;;;;;;10.67;66.26;94351.03;6166860;23;20011;-84
2023/12/12 09:35:10;;;;;;;12.25;7.70;;;;;;;11.00;64.71;94334.63;6191474;23;20091;-84
2023/12/12 09:37:36;;;;;;;11.02;6.35;;;;;;;10.97;64.80;94328.03;6191649;23;20019;-83
2023/12/12 09:40:05;;;;;;;7.05;5.20;;;;;;;11.34;63.46;94336.97;6216974;23;20004;-84
2023/12/12 09:42:34;;;;;;;6.63;4.47;;;;;;;11.11;64.25;94327.00;6216678;23;20000;-84
2023/12/12 09:45:03;;;;;;;5.00;4.22;;;;;;;11.15;64.31;94319.59;6192292;23;20015;-84
2023/12/12 09:47:30;;;;;;;4.65;3.47;;;;;;;11.29;64.09;94323.78;6216961;23;20008;-84
2023/12/12 09:49:58;;;;;;;4.18;3.45;;;;;;;11.38;63.39;94315.75;6216783;23;20019;-84
2023/12/12 09:52:26;;;;;;;3.17;2.70;;;;;;;11.45;63.30;94313.94;6191728;23;20019;-83
2023/12/12 09:54:52;;;;;;;3.30;2.42;;;;;;;11.42;63.22;94320.31;6216411;23;20086;-84
2023/12/12 09:57:19;;;;;;;3.00;2.10;;;;;;;11.36;63.66;94313.34;6216683;23;20004;-83
2023/12/12 09:59:44;;;;;;;2.85;2.30;;;;;;;11.45;63.33;94313.94;6215677;23;20014;-83
2023/12/12 10:02:20;;;;;;;2.63;1.83;;;;;;;11.38;62.95;94310.53;6215818;23;20028;-84
2023/12/12 10:04:46;;;;;;;1.65;1.48;;;;;;;11.43;63.09;94301.09;6216463;23;20059;-84
2023/12/12 10:07:15;;;;;;;2.05;1.50;;;;;;;11.53;62.87;94291.06;6216333;23;20000;-83
2023/12/12 10:09:41;;;;;;;2.28;1.80;;;;;;;11.48;63.06;94279.66;6216118;23;20004;-83
2023/12/12 10:12:08;;;;;;;1.80;1.38;;;;;;;11.42;63.45;94267.47;6191246;23;20016;-84
2023/12/12 10:14:36;;;;;;;2.50;1.50;;;;;;;11.50;63.17;94249.81;6190403;23;20008;-84
2023/12/12 10:17:04;;;;;;;1.50;1.20;;;;;;;11.74;62.53;94255.31;6191248;23;20020;-84
2023/12/12 10:19:30;;;;;;;1.92;1.40;;;;;;;11.72;62.52;94245.09;6216512;23;20079;-84
2023/12/12 10:21:55;;;;;;;1.63;1.30;;;;;;;11.82;62.74;94238.63;6166276;23;20051;-83
2023/12/12 10:24:27;;;;;;;2.38;1.63;;;;;;;11.80;63.41;94230.22;6166178;23;20030;-84
2023/12/12 10:26:52;;;;;;;1.90;1.52;;;;;;;11.80;63.27;94219.81;6215098;23;20071;-83
2023/12/12 10:29:21;;;;;;;1.42;1.30;;;;;;;11.85;62.90;94202.53;6191523;23;20019;-84
2023/12/12 10:31:47;;;;;;;1.40;1.02;;;;;;;11.97;62.55;94209.72;6191097;23;20038;-84
2023/12/12 10:34:13;;;;;;;1.58;1.20;;;;;;;12.02;62.55;94220.31;6215210;23;20004;-84
2023/12/12 10:36:42;;;;;;;1.98;1.50;;;;;;;12.02;62.76;94228.94;6216099;23;20000;-84
2023/12/12 10:39:14;;;;;;;3.85;2.40;;;;;;;11.90;62.02;94236.63;6216282;23;20019;-84
2023/12/12 10:41:39;;;;;;;3.92;2.80;;;;;;;11.71;62.83;94240.13;6216320;23;19999;-84
2023/12/12 10:44:08;;;;;;;4.93;2.80;;;;;;;11.96;61.52;94227.16;6165457;23;20004;-84
2023/12/12 10:46:38;;;;;;;3.72;3.33;;;;;;;11.93;61.78;94219.75;6191839;23;20027;-84
2023/12/12 10:49:07;;;;;;;4.00;2.53;;;;;;;11.56;62.89;94224.75;6191949;23;20157;-84
2023/12/12 10:51:32;;;;;;;3.35;2.90;;;;;;;11.49;63.39;94218.78;6217004;23;20000;-84
2023/12/12 10:54:00;;;;;;;4.70;2.90;;;;;;;11.38;63.50;94209.00;6193025;23;20138;-84
2023/12/12 10:56:35;;;;;;;3.80;3.35;;;;;;;11.69;62.73;94200.41;6193288;23;20015;-84
2023/12/12 10:59:02;;;;;;;5.65;4.10;;;;;;;11.65;62.84;94199.25;6218018;23;20000;-84
2023/12/12 11:01:29;;;;;;;4.60;4.20;;;;;;;11.66;62.90;94199.03;6217688;23;20008;-84
2023/12/12 11:03:57;;;;;;;4.55;4.05;;;;;;;11.70;62.57;94187.19;6217818;23;20011;-84
2023/12/12 11:06:23;;;;;;;5.25;3.97;;;;;;;11.82;62.40;94196.94;6217960;23;20011;-84
2023/12/12 11:08:49;;;;;;;5.10;2.90;;;;;;;11.77;62.52;94186.38;6193043;23;20004;-84
2023/12/12 11:11:17;;;;;;;4.13;2.50;;;;;;;11.77;62.69;94184.56;6168019;23;20036;-84
2023/12/12 11:13:43;;;;;;;2.80;2.35;;;;;;;11.74;63.15;94185.75;6218022;23;20015;-83
2023/12/12 11:16:10;;;;;;;1.42;1.33;;;;;;;11.82;62.56;94199.56;6193054;23;20008;-84
2023/12/12 11:18:37;;;;;;;3.42;1.63;;;;;;;11.73;62.93;94202.41;6217751;23;20022;-84
2023/12/12 11:21:04;;;;;;;2.33;1.80;;;;;;;11.75;63.53;94223.06;6192714;23;20004;-84
2023/12/12 11:23:53;;;;;;;2.63;1.63;;;;;;;11.78;62.80;94227.81;6216984;23;20008;-84
2023/12/12 11:26:21;;;;;;;1.95;1.45;;;;;;;11.69;63.31;94210.84;6218100;23;20057;-84
2023/12/12 11:28:48;;;;;;;1.48;1.25;;;;;;;11.90;62.77;94207.16;6193601;23;20016;-85
2023/12/12 11:31:27;;;;;;;3.08;1.40;;;;;;;11.85;62.82;94201.75;6217653;23;20014;-84
2023/12/12 11:34:10;;;;;;;2.10;1.50;;;;;;;11.99;62.45;94211.09;6217572;23;20008;-84
2023/12/12 11:36:57;;;;;;;2.55;1.40;;;;;;;12.13;61.98;94202.19;6192294;23;20046;-84
2023/12/12 11:39:52;;;;;;;2.65;1.65;;;;;;;11.76;63.16;94184.78;6193520;23;20034;-84
2023/12/12 11:42:17;;;;;;;1.88;1.20;;;;;;;12.02;62.65;94189.03;6217808;23;20054;-84
2023/12/12 11:44:54;;;;;;;1.00;0.90;;;;;;;11.88;62.54;94185.69;6218154;23;20004;-84